Time;durP1;ratioP1;P1;durP2;ratioP2;P2;SDS_P1;SDS_P2;PMS_P1;PMS_P2;Temp;Humidity;BMP_temperature;BMP_pressure;BME280_temperature;BME280_humidity;BME280_pressure;Samples;Min_cycle;Max_cycle;Signal;HPM_P1;HPM_P2
2021/05/28 00:06:13;;;;;;;1.00;0.93;;;19.10;99.90;;;;;;20611489;28;20233;-64
2021/05/28 00:16:17;;;;;;;0.20;0.20;;;18.50;99.90;;;;;;20593428;28;20199;-64
2021/05/28 00:26:20;;;;;;;4.40;0.90;;;18.30;99.90;;;;;;20609598;28;20684;-64
2021/05/28 00:36:24;;;;;;;0.53;0.53;;;18.40;99.90;;;;;;20592999;28;20559;-64
2021/05/28 00:46:27;;;;;;;0.60;0.60;;;18.00;99.90;;;;;;20623072;28;20555;-64
2021/05/28 00:56:32;;;;;;;0.33;0.33;;;17.80;99.90;;;;;;20626709;28;20554;-64
2021/05/28 01:06:35;;;;;;;0.63;0.63;;;17.60;99.90;;;;;;20624516;28;20712;-64
2021/05/28 01:16:39;;;;;;;0.37;0.37;;;17.60;99.90;;;;;;20624640;28;20214;-63
2021/05/28 01:26:43;;;;;;;1.07;1.03;;;17.70;99.90;;;;;;20623851;28;20227;-63
2021/05/28 01:36:46;;;;;;;3.30;0.60;;;17.60;99.90;;;;;;20624169;28;20516;-63
2021/05/28 01:46:50;;;;;;;0.97;0.30;;;17.60;99.90;;;;;;20623233;28;20705;-64
2021/05/28 01:56:53;;;;;;;1.03;0.97;;;17.50;99.90;;;;;;20621831;28;20875;-64
2021/05/28 02:06:57;;;;;;;0.83;0.83;;;17.70;99.90;;;;;;20559474;28;20230;-64
2021/05/28 02:17:00;;;;;;;3.10;0.77;;;17.70;99.90;;;;;;20701207;28;20207;-64
2021/05/28 02:27:06;;;;;;;3.90;0.90;;;17.50;99.90;;;;;;20699355;28;20222;-63
2021/05/28 02:37:09;;;;;;;0.60;0.60;;;17.70;99.90;;;;;;20698031;28;20213;-63
2021/05/28 02:47:13;;;;;;;0.57;0.57;;;17.80;99.90;;;;;;20698040;28;20584;-62
2021/05/28 02:57:16;;;;;;;0.90;0.90;;;17.70;99.90;;;;;;20679203;28;20485;-63
2021/05/28 03:07:20;;;;;;;0.63;0.63;;;17.60;99.90;;;;;;20681497;28;20633;-65
2021/05/28 03:17:23;;;;;;;1.23;1.07;;;17.20;99.90;;;;;;20630440;28;20563;-63
2021/05/28 03:27:27;;;;;;;0.40;0.40;;;17.20;99.90;;;;;;20617237;28;20717;-63
2021/05/28 03:37:31;;;;;;;1.40;0.97;;;17.10;99.90;;;;;;20614725;28;20499;-63
2021/05/28 03:47:36;;;;;;;3.83;0.87;;;17.00;99.90;;;;;;20611540;28;20223;-64
2021/05/28 03:57:40;;;;;;;1.17;0.83;;;16.80;99.90;;;;;;20613278;28;20255;-60
2021/05/28 04:07:44;;;;;;;2.20;1.13;;;16.50;99.90;;;;;;20610580;28;20721;-63
2021/05/28 04:17:47;;;;;;;0.40;0.40;;;16.70;99.90;;;;;;20612474;28;20199;-64
2021/05/28 04:27:51;;;;;;;0.60;0.60;;;17.10;99.90;;;;;;20611247;28;20231;-62
2021/05/28 04:37:54;;;;;;;0.33;0.33;;;17.40;99.90;;;;;;20611348;28;20199;-63
2021/05/28 04:47:58;;;;;;;0.83;0.67;;;17.60;99.90;;;;;;20610648;28;20231;-63
2021/05/28 04:58:02;;;;;;;0.60;0.50;;;17.70;99.90;;;;;;20608424;28;20290;-63
2021/05/28 05:08:06;;;;;;;0.90;0.87;;;18.20;99.90;;;;;;20609328;28;20271;-63
2021/05/28 05:18:09;;;;;;;8.90;1.50;;;18.40;99.90;;;;;;20610220;28;20203;-63
2021/05/28 05:28:13;;;;;;;1.20;1.10;;;18.30;99.90;;;;;;20612568;28;20231;-62
2021/05/28 05:38:18;;;;;;;1.07;1.00;;;18.10;99.90;;;;;;20623488;28;20246;-62
2021/05/28 05:48:22;;;;;;;0.67;0.67;;;18.50;99.90;;;;;;20620411;28;20267;-65
2021/05/28 05:58:25;;;;;;;3.20;1.17;;;18.60;99.90;;;;;;20602783;28;20191;-65
2021/05/28 06:08:29;;;;;;;1.07;0.97;;;18.70;99.90;;;;;;20615767;28;20251;-63
2021/05/28 06:18:32;;;;;;;0.63;0.63;;;19.00;99.90;;;;;;20618072;28;20247;-70
2021/05/28 06:28:36;;;;;;;0.40;0.30;;;19.40;99.90;;;;;;20618492;28;20231;-64
2021/05/28 06:38:39;;;;;;;1.27;1.03;;;19.50;99.90;;;;;;20617580;28;20203;-64
2021/05/28 06:48:44;;;;;;;1.90;1.80;;;19.60;99.90;;;;;;20615030;28;20223;-64
2021/05/28 06:58:49;;;;;;;1.53;1.43;;;19.60;99.90;;;;;;20616896;28;20199;-66
2021/05/28 07:08:53;;;;;;;9.47;1.73;;;19.90;99.90;;;;;;20627070;28;20242;-64
2021/05/28 07:18:57;;;;;;;1.10;0.93;;;20.10;99.90;;;;;;20612837;28;20207;-63
2021/05/28 07:29:01;;;;;;;0.77;0.77;;;20.60;99.90;;;;;;20610216;28;20258;-65
2021/05/28 07:39:05;;;;;;;1.43;1.33;;;20.50;99.90;;;;;;20593171;28;20199;-69
2021/05/28 07:49:10;;;;;;;0.83;0.83;;;20.40;99.90;;;;;;20593921;28;20719;-64
2021/05/28 07:59:13;;;;;;;0.80;0.80;;;20.50;99.90;;;;;;20608765;28;20522;-64
2021/05/28 08:09:17;;;;;;;0.60;0.60;;;20.50;99.90;;;;;;20604390;28;20334;-65
2021/05/28 08:19:20;;;;;;;1.33;0.40;;;20.90;99.90;;;;;;20590417;28;20199;-65
2021/05/28 08:29:24;;;;;;;1.00;0.70;;;20.30;99.90;;;;;;20607061;28;20233;-63
2021/05/28 08:39:27;;;;;;;0.50;0.50;;;20.10;99.90;;;;;;20607589;28;20195;-63
2021/05/28 08:49:31;;;;;;;0.40;0.40;;;20.10;99.90;;;;;;20605836;28;20223;-65
2021/05/28 08:59:35;;;;;;;0.20;0.20;;;21.00;99.90;;;;;;20605864;28;20286;-66
2021/05/28 09:09:40;;;;;;;1.07;0.70;;;21.50;99.90;;;;;;20619461;28;20231;-64
2021/05/28 09:19:52;;;;;;;5.63;1.23;;;21.50;99.90;;;;;;20619637;28;20375;-66
2021/05/28 09:30:01;;;;;;;0.50;0.20;;;21.30;99.90;;;;;;20618181;28;20426;-65
2021/05/28 09:40:07;;;;;;;0.80;0.80;;;21.10;99.90;;;;;;20617198;28;20199;-64
2021/05/28 09:50:14;;;;;;;2.07;1.67;;;21.20;99.90;;;;;;20600231;28;20219;-66
2021/05/28 10:00:25;;;;;;;1.07;0.80;;;21.80;99.90;;;;;;20617349;28;20199;-64
2021/05/28 10:10:29;;;;;;;2.30;0.70;;;22.40;99.90;;;;;;20650926;28;20226;-65
2021/05/28 10:20:32;;;;;;;0.50;0.50;;;22.70;99.90;;;;;;20696973;28;20426;-65
2021/05/28 10:30:41;;;;;;;0.60;0.60;;;22.40;99.90;;;;;;20660622;28;20641;-65
2021/05/28 10:40:44;;;;;;;0.30;0.30;;;22.70;99.90;;;;;;20636222;28;20278;-66
2021/05/28 10:50:48;;;;;;;1.23;1.13;;;22.70;99.90;;;;;;20612813;28;20593;-65
2021/05/28 11:00:51;;;;;;;0.30;0.30;;;22.90;99.90;;;;;;20612275;28;20228;-65
2021/05/28 11:10:55;;;;;;;0.27;0.27;;;23.20;99.90;;;;;;20652840;28;20222;-67
2021/05/28 11:21:15;;;;;;;0.90;0.55;;;23.50;99.90;;;;;;20693897;28;20555;-62
2021/05/28 11:31:21;;;;;;;0.57;0.40;;;24.60;99.90;;;;;;20691752;28;20222;-63
2021/05/28 11:41:42;;;;;;;1.05;1.00;;;25.00;99.90;;;;;;20625181;28;20191;-63
2021/05/28 11:51:56;;;;;;;0.77;0.73;;;25.50;99.90;;;;;;20592225;28;20616;-64
2021/05/28 12:01:59;;;;;;;2.80;0.60;;;25.50;99.90;;;;;;20588805;28;20227;-68
2021/05/28 12:12:06;;;;;;;1.48;0.88;;;25.80;99.90;;;;;;20659110;28;20310;-66
2021/05/28 12:22:11;;;;;;;0.28;0.10;;;26.50;99.90;;;;;;20689084;28;20311;-67
2021/05/28 12:32:15;;;;;;;0.52;0.43;;;26.90;99.90;;;;;;20683649;28;20229;-67
2021/05/28 12:42:21;;;;;;;0.40;0.30;;;27.30;99.90;;;;;;20605867;28;20238;-66
2021/05/28 12:52:28;;;;;;;0.43;0.20;;;28.10;99.90;;;;;;20622210;28;20234;-68
2021/05/28 13:02:37;;;;;;;2.10;0.50;;;27.40;99.90;;;;;;20705734;28;20596;-68
2021/05/28 13:12:41;;;;;;;0.30;0.30;;;27.80;99.90;;;;;;20653754;28;20325;-66
2021/05/28 13:22:48;;;;;;;1.00;0.93;;;27.30;99.90;;;;;;20619393;28;20211;-66
2021/05/28 13:32:52;;;;;;;0.70;0.70;;;28.20;99.90;;;;;;20620407;28;20305;-66
2021/05/28 13:42:56;;;;;;;0.40;0.35;;;25.30;99.90;;;;;;20619846;28;20204;-69
2021/05/28 13:53:00;;;;;;;0.30;0.25;;;25.60;99.90;;;;;;20617302;28;20652;-67
2021/05/28 14:03:04;;;;;;;1.17;0.73;;;28.40;99.90;;;;;;20598845;28;20230;-64
2021/05/28 14:13:12;;;;;;;0.68;0.52;;;28.70;99.90;;;;;;20639111;28;20203;-67
2021/05/28 14:23:17;;;;;;;1.47;0.60;;;29.00;99.90;;;;;;20616796;28;20202;-66
2021/05/28 14:33:24;;;;;;;0.80;0.50;;;29.50;99.90;;;;;;20616522;28;20375;-67
2021/05/28 14:43:27;;;;;;;8.27;0.88;;;29.90;99.90;;;;;;20614104;28;20200;-64
2021/05/28 14:53:31;;;;;;;2.05;0.82;;;30.30;99.90;;;;;;20613008;28;20199;-64
2021/05/28 15:03:35;;;;;;;8.07;0.82;;;30.20;99.90;;;;;;20612595;28;20238;-65
2021/05/28 15:13:39;;;;;;;2.47;1.75;;;30.30;99.90;;;;;;20676761;28;20206;-65
2021/05/28 15:23:43;;;;;;;2.90;0.80;;;29.60;99.90;;;;;;20693147;28;20566;-66
2021/05/28 15:33:47;;;;;;;1.10;0.63;;;29.50;99.90;;;;;;20687290;28;20756;-67
2021/05/28 15:43:50;;;;;;;2.00;1.15;;;29.20;99.90;;;;;;20673230;28;20552;-69
2021/05/28 15:53:54;;;;;;;3.20;0.30;;;28.90;99.90;;;;;;20691837;28;20205;-67
2021/05/28 16:03:57;;;;;;;0.38;0.30;;;28.90;99.90;;;;;;20670932;28;20329;-62
2021/05/28 16:14:03;;;;;;;0.35;0.30;;;28.80;99.90;;;;;;20690136;28;20206;-63
2021/05/28 16:24:07;;;;;;;0.50;0.40;;;28.70;99.90;;;;;;20656592;28;20575;-62
2021/05/28 16:34:11;;;;;;;0.55;0.43;;;28.70;99.90;;;;;;20689384;28;20682;-65
2021/05/28 16:44:14;;;;;;;0.20;0.20;;;28.30;99.90;;;;;;20688913;28;20226;-64
2021/05/28 16:54:18;;;;;;;0.90;0.70;;;28.40;99.90;;;;;;20626129;28;20200;-65
2021/05/28 17:04:21;;;;;;;2.70;1.05;;;27.90;99.90;;;;;;20604292;28;20358;-64
2021/05/28 17:14:25;;;;;;;0.20;0.10;;;28.50;99.90;;;;;;20585948;28;20200;-66
2021/05/28 17:24:28;;;;;;;3.22;2.45;;;27.70;99.90;;;;;;20609635;28;20216;-64
2021/05/28 17:34:33;;;;;;;0.60;0.40;;;27.60;99.90;;;;;;20650734;28;20198;-64
2021/05/28 17:44:37;;;;;;;0.20;0.10;;;26.90;99.90;;;;;;20702293;28;20643;-65
2021/05/28 17:54:41;;;;;;;0.40;0.40;;;26.60;99.90;;;;;;20699898;28;20206;-65
2021/05/28 18:04:44;;;;;;;0.30;0.30;;;26.00;99.90;;;;;;20698289;28;20230;-65
2021/05/28 18:14:48;;;;;;;0.30;0.25;;;24.40;99.90;;;;;;20682392;28;20198;-64
2021/05/28 18:24:51;;;;;;;1.40;0.67;;;23.60;99.90;;;;;;20699885;28;20634;-65
2021/05/28 18:34:55;;;;;;;0.47;0.47;;;22.60;99.90;;;;;;20663060;28;20208;-66
2021/05/28 18:44:58;;;;;;;0.77;0.50;;;22.50;99.90;;;;;;20615910;28;20643;-66
2021/05/28 18:55:03;;;;;;;0.80;0.70;;;21.70;99.90;;;;;;20616455;28;20195;-66
2021/05/28 19:05:08;;;;;;;0.47;0.47;;;21.60;99.90;;;;;;20616696;28;20239;-68
2021/05/28 19:15:14;;;;;;;0.30;0.20;;;21.30;99.90;;;;;;20597102;28;20187;-66
2021/05/28 19:25:18;;;;;;;1.03;0.93;;;21.20;99.90;;;;;;20614509;28;20242;-65
2021/05/28 19:35:21;;;;;;;6.00;0.67;;;21.00;99.90;;;;;;20624739;28;20636;-65
2021/05/28 19:45:25;;;;;;;0.30;0.30;;;21.00;99.90;;;;;;20692778;28;20312;-66
2021/05/28 19:55:43;;;;;;;0.37;0.37;;;20.80;99.90;;;;;;20691747;28;20690;-66
2021/05/28 20:05:47;;;;;;;0.57;0.57;;;20.70;99.90;;;;;;20690018;28;20253;-65
2021/05/28 20:15:52;;;;;;;0.43;0.33;;;20.50;99.90;;;;;;20691508;28;20202;-67
2021/05/28 20:25:55;;;;;;;0.23;0.17;;;20.60;99.90;;;;;;20691754;28;20719;-65
2021/05/28 20:35:59;;;;;;;0.80;0.73;;;20.50;99.90;;;;;;20674318;28;20206;-65
2021/05/28 20:46:03;;;;;;;0.93;0.80;;;20.60;99.90;;;;;;20689485;28;20373;-66
2021/05/28 20:56:14;;;;;;;0.87;0.70;;;20.50;99.90;;;;;;20691569;28;20635;-64
2021/05/28 21:06:17;;;;;;;1.57;0.27;;;20.20;99.90;;;;;;20708904;28;20222;-66
2021/05/28 21:16:21;;;;;;;0.63;0.40;;;20.00;99.90;;;;;;20704383;28;20207;-65
2021/05/28 21:26:24;;;;;;;2.83;0.93;;;19.90;99.90;;;;;;20702412;28;20288;-65
2021/05/28 21:36:28;;;;;;;4.87;0.90;;;19.80;99.90;;;;;;20658185;28;20196;-65
2021/05/28 21:46:31;;;;;;;1.37;1.27;;;19.30;99.90;;;;;;20603283;28;20224;-65
2021/05/28 21:56:35;;;;;;;1.83;1.60;;;19.10;99.90;;;;;;20619838;28;20626;-64
2021/05/28 22:06:38;;;;;;;6.77;0.90;;;18.90;99.90;;;;;;20617744;28;20227;-63
2021/05/28 22:16:42;;;;;;;2.77;1.10;;;18.70;99.90;;;;;;20701214;28;20194;-65
2021/05/28 22:26:52;;;;;;;1.77;0.60;;;18.50;99.90;;;;;;20683230;28;20226;-64
2021/05/28 22:36:56;;;;;;;1.10;0.57;;;18.40;99.90;;;;;;20696885;28;20286;-65
2021/05/28 22:46:59;;;;;;;0.60;0.60;;;18.30;99.90;;;;;;20698702;28;20237;-64
2021/05/28 22:57:04;;;;;;;1.03;0.80;;;18.40;99.90;;;;;;20695817;28;20195;-65
2021/05/28 23:07:08;;;;;;;0.67;0.53;;;18.70;99.90;;;;;;20697340;28;21072;-65
2021/05/28 23:17:12;;;;;;;0.67;0.47;;;18.60;99.90;;;;;;20695661;28;20745;-62
2021/05/28 23:27:15;;;;;;;0.43;0.43;;;18.10;99.90;;;;;;20694819;28;20955;-64
2021/05/28 23:37:20;;;;;;;2.93;1.13;;;18.10;99.90;;;;;;20691738;28;20202;-65
2021/05/28 23:47:23;;;;;;;1.40;1.30;;;17.90;99.90;;;;;;20694113;28;20605;-65
2021/05/28 23:57:28;;;;;;;1.90;0.90;;;17.80;99.90;;;;;;20674563;28;20535;-63
